sensor_id;sensor_type;location;lat;lon;timestamp;pressure;altitude;pressure_sealevel;temperature
76476;BMP280;65308;50.078;14.854;2023-08-08T00:01:30;99028.84;;;14.70
76476;BMP280;65308;50.078;14.854;2023-08-08T00:03:57;99035.78;;;14.56
76476;BMP280;65308;50.078;14.854;2023-08-08T00:06:25;99033.88;;;14.42
76476;BMP280;65308;50.078;14.854;2023-08-08T00:08:52;99038.34;;;14.30
76476;BMP280;65308;50.078;14.854;2023-08-08T00:11:18;99034.28;;;14.20
76476;BMP280;65308;50.078;14.854;2023-08-08T00:13:45;99034.50;;;14.16
76476;BMP280;65308;50.078;14.854;2023-08-08T00:16:12;99033.09;;;14.06
76476;BMP280;65308;50.078;14.854;2023-08-08T00:18:40;99026.16;;;13.99
76476;BMP280;65308;50.078;14.854;2023-08-08T00:21:06;99028.75;;;13.94
76476;BMP280;65308;50.078;14.854;2023-08-08T00:23:33;99028.00;;;13.93
76476;BMP280;65308;50.078;14.854;2023-08-08T00:26:00;99038.97;;;13.90
76476;BMP280;65308;50.078;14.854;2023-08-08T00:28:26;99028.00;;;13.79
76476;BMP280;65308;50.078;14.854;2023-08-08T00:30:53;99029.03;;;13.66
76476;BMP280;65308;50.078;14.854;2023-08-08T00:33:20;99032.53;;;13.72
76476;BMP280;65308;50.078;14.854;2023-08-08T00:35:48;99027.69;;;13.71
76476;BMP280;65308;50.078;14.854;2023-08-08T00:38:15;99031.72;;;13.66
76476;BMP280;65308;50.078;14.854;2023-08-08T00:40:47;99039.78;;;13.66
76476;BMP280;65308;50.078;14.854;2023-08-08T00:43:13;99027.63;;;13.56
76476;BMP280;65308;50.078;14.854;2023-08-08T00:45:42;99028.75;;;13.49
76476;BMP280;65308;50.078;14.854;2023-08-08T00:48:09;99032.41;;;13.37
76476;BMP280;65308;50.078;14.854;2023-08-08T00:50:37;99030.22;;;13.36
76476;BMP280;65308;50.078;14.854;2023-08-08T00:53:05;99030.78;;;13.40
76476;BMP280;65308;50.078;14.854;2023-08-08T00:55:32;99038.09;;;13.39
76476;BMP280;65308;50.078;14.854;2023-08-08T00:57:59;99030.69;;;13.49
76476;BMP280;65308;50.078;14.854;2023-08-08T01:00:25;99038.00;;;13.48
76476;BMP280;65308;50.078;14.854;2023-08-08T01:02:52;99031.53;;;13.40
76476;BMP280;65308;50.078;14.854;2023-08-08T01:05:19;99020.78;;;13.40
76476;BMP280;65308;50.078;14.854;2023-08-08T01:07:52;99032.63;;;13.48
76476;BMP280;65308;50.078;14.854;2023-08-08T01:10:30;99025.66;;;13.42
76476;BMP280;65308;50.078;14.854;2023-08-08T01:13:00;99023.56;;;13.46
76476;BMP280;65308;50.078;14.854;2023-08-08T01:15:29;99029.78;;;13.52
76476;BMP280;65308;50.078;14.854;2023-08-08T01:18:01;99024.56;;;13.48
76476;BMP280;65308;50.078;14.854;2023-08-08T01:20:29;99033.47;;;13.40
76476;BMP280;65308;50.078;14.854;2023-08-08T01:23:06;99033.19;;;13.38
76476;BMP280;65308;50.078;14.854;2023-08-08T04:37:15;99037.16;;;14.52
76476;BMP280;65308;50.078;14.854;2023-08-08T04:39:44;99036.91;;;14.49
76476;BMP280;65308;50.078;14.854;2023-08-08T04:42:11;99047.09;;;14.60
76476;BMP280;65308;50.078;14.854;2023-08-08T04:44:41;99052.84;;;14.68
76476;BMP280;65308;50.078;14.854;2023-08-08T04:47:08;99043.94;;;14.82
76476;BMP280;65308;50.078;14.854;2023-08-08T04:49:35;99045.22;;;14.87
76476;BMP280;65308;50.078;14.854;2023-08-08T04:52:01;99051.41;;;14.93
76476;BMP280;65308;50.078;14.854;2023-08-08T04:54:30;99048.44;;;15.11
76476;BMP280;65308;50.078;14.854;2023-08-08T04:56:56;99061.88;;;15.84
76476;BMP280;65308;50.078;14.854;2023-08-08T04:59:23;99063.53;;;17.10
76476;BMP280;65308;50.078;14.854;2023-08-08T05:01:50;99070.41;;;18.40
76476;BMP280;65308;50.078;14.854;2023-08-08T05:04:17;99081.63;;;19.79
76476;BMP280;65308;50.078;14.854;2023-08-08T05:06:44;99072.84;;;20.78
76476;BMP280;65308;50.078;14.854;2023-08-08T05:09:11;99073.03;;;21.18
76476;BMP280;65308;50.078;14.854;2023-08-08T05:11:39;99072.91;;;21.56
76476;BMP280;65308;50.078;14.854;2023-08-08T05:14:06;99074.31;;;22.02
76476;BMP280;65308;50.078;14.854;2023-08-08T05:16:32;99078.75;;;23.28
76476;BMP280;65308;50.078;14.854;2023-08-08T05:18:59;99080.75;;;23.28
76476;BMP280;65308;50.078;14.854;2023-08-08T05:21:26;99072.41;;;23.33
76476;BMP280;65308;50.078;14.854;2023-08-08T05:23:52;99093.44;;;24.62
76476;BMP280;65308;50.078;14.854;2023-08-08T05:26:19;99077.25;;;25.41
76476;BMP280;65308;50.078;14.854;2023-08-08T05:28:47;99077.63;;;24.84
76476;BMP280;65308;50.078;14.854;2023-08-08T05:31:19;99077.16;;;24.34
76476;BMP280;65308;50.078;14.854;2023-08-08T05:33:48;99079.50;;;24.30
76476;BMP280;65308;50.078;14.854;2023-08-08T05:36:15;99079.44;;;24.14
76476;BMP280;65308;50.078;14.854;2023-08-08T05:38:41;99067.31;;;23.58
76476;BMP280;65308;50.078;14.854;2023-08-08T05:41:08;99066.63;;;23.16
76476;BMP280;65308;50.078;14.854;2023-08-08T05:43:35;99066.88;;;22.84
76476;BMP280;65308;50.078;14.854;2023-08-08T05:46:04;99058.66;;;22.29
76476;BMP280;65308;50.078;14.854;2023-08-08T05:48:31;99057.34;;;21.69
76476;BMP280;65308;50.078;14.854;2023-08-08T05:50:57;99055.28;;;21.43
76476;BMP280;65308;50.078;14.854;2023-08-08T05:53:25;99058.44;;;20.83
76476;BMP280;65308;50.078;14.854;2023-08-08T05:55:52;99059.16;;;20.46
76476;BMP280;65308;50.078;14.854;2023-08-08T05:58:18;99057.00;;;20.20
76476;BMP280;65308;50.078;14.854;2023-08-08T06:00:45;99060.59;;;19.85
76476;BMP280;65308;50.078;14.854;2023-08-08T06:03:14;99076.66;;;21.07
76476;BMP280;65308;50.078;14.854;2023-08-08T06:05:41;99086.63;;;23.11
76476;BMP280;65308;50.078;14.854;2023-08-08T06:08:07;99082.56;;;25.23
76476;BMP280;65308;50.078;14.854;2023-08-08T06:10:37;99068.69;;;27.42
76476;BMP280;65308;50.078;14.854;2023-08-08T06:13:04;99074.44;;;28.51
76476;BMP280;65308;50.078;14.854;2023-08-08T06:15:30;99076.81;;;30.00
76476;BMP280;65308;50.078;14.854;2023-08-08T06:18:01;99079.47;;;31.24
76476;BMP280;65308;50.078;14.854;2023-08-08T06:20:29;99067.47;;;32.23
76476;BMP280;65308;50.078;14.854;2023-08-08T06:22:56;99063.72;;;32.30
76476;BMP280;65308;50.078;14.854;2023-08-08T06:25:23;99054.84;;;31.40
76476;BMP280;65308;50.078;14.854;2023-08-08T06:27:49;99057.56;;;30.74
76476;BMP280;65308;50.078;14.854;2023-08-08T06:30:16;99066.00;;;30.76
76476;BMP280;65308;50.078;14.854;2023-08-08T06:32:43;99073.69;;;31.76
76476;BMP280;65308;50.078;14.854;2023-08-08T06:35:10;99076.63;;;33.11
76476;BMP280;65308;50.078;14.854;2023-08-08T06:37:38;99070.16;;;33.85
76476;BMP280;65308;50.078;14.854;2023-08-08T06:40:06;99076.13;;;34.07
76476;BMP280;65308;50.078;14.854;2023-08-08T06:42:34;99082.47;;;35.39
76476;BMP280;65308;50.078;14.854;2023-08-08T06:45:01;99085.53;;;36.61
76476;BMP280;65308;50.078;14.854;2023-08-08T06:47:28;99075.94;;;37.39
76476;BMP280;65308;50.078;14.854;2023-08-08T06:49:55;99088.72;;;38.49
76476;BMP280;65308;50.078;14.854;2023-08-08T06:52:22;99088.28;;;39.56
76476;BMP280;65308;50.078;14.854;2023-08-08T06:54:50;99082.81;;;40.80
76476;BMP280;65308;50.078;14.854;2023-08-08T06:57:16;99082.94;;;41.60
76476;BMP280;65308;50.078;14.854;2023-08-08T06:59:44;99074.38;;;41.14
76476;BMP280;65308;50.078;14.854;2023-08-08T07:02:15;99081.97;;;40.40
76476;BMP280;65308;50.078;14.854;2023-08-08T07:04:42;99074.91;;;38.77
76476;BMP280;65308;50.078;14.854;2023-08-08T07:07:09;99077.34;;;37.80
76476;BMP280;65308;50.078;14.854;2023-08-08T07:09:35;99071.19;;;36.33
76476;BMP280;65308;50.078;14.854;2023-08-08T07:12:08;99074.44;;;35.31
76476;BMP280;65308;50.078;14.854;2023-08-08T07:14:35;99081.88;;;34.81
76476;BMP280;65308;50.078;14.854;2023-08-08T07:17:02;99093.69;;;34.39
76476;BMP280;65308;50.078;14.854;2023-08-08T07:19:29;99082.59;;;34.52
76476;BMP280;65308;50.078;14.854;2023-08-08T07:21:55;99081.31;;;34.69
76476;BMP280;65308;50.078;14.854;2023-08-08T07:24:25;99073.97;;;33.38
76476;BMP280;65308;50.078;14.854;2023-08-08T07:26:54;99070.06;;;32.56
76476;BMP280;65308;50.078;14.854;2023-08-08T07:29:22;99069.63;;;31.89
76476;BMP280;65308;50.078;14.854;2023-08-08T07:31:48;99066.44;;;31.15
76476;BMP280;65308;50.078;14.854;2023-08-08T07:34:15;99068.13;;;30.35
76476;BMP280;65308;50.078;14.854;2023-08-08T07:36:41;99071.91;;;29.89
76476;BMP280;65308;50.078;14.854;2023-08-08T07:39:08;99074.16;;;29.61
76476;BMP280;65308;50.078;14.854;2023-08-08T07:41:36;99073.28;;;29.49
76476;BMP280;65308;50.078;14.854;2023-08-08T07:44:03;99076.34;;;29.44
76476;BMP280;65308;50.078;14.854;2023-08-08T07:46:31;99072.56;;;29.10
76476;BMP280;65308;50.078;14.854;2023-08-08T07:48:58;99077.44;;;28.82
76476;BMP280;65308;50.078;14.854;2023-08-08T07:51:29;99070.28;;;28.60
76476;BMP280;65308;50.078;14.854;2023-08-08T07:53:56;99074.81;;;28.38
76476;BMP280;65308;50.078;14.854;2023-08-08T07:56:22;99074.34;;;28.05
76476;BMP280;65308;50.078;14.854;2023-08-08T07:58:49;99073.56;;;27.68
76476;BMP280;65308;50.078;14.854;2023-08-08T08:01:16;99067.00;;;27.63
76476;BMP280;65308;50.078;14.854;2023-08-08T08:03:45;99071.06;;;27.62
76476;BMP280;65308;50.078;14.854;2023-08-08T08:06:12;99067.16;;;27.66
76476;BMP280;65308;50.078;14.854;2023-08-08T08:08:38;99067.00;;;27.63
76476;BMP280;65308;50.078;14.854;2023-08-08T08:11:05;99066.84;;;27.44
76476;BMP280;65308;50.078;14.854;2023-08-08T08:13:32;99068.47;;;27.30
76476;BMP280;65308;50.078;14.854;2023-08-08T08:15:59;99070.09;;;27.50
76476;BMP280;65308;50.078;14.854;2023-08-08T08:18:25;99068.66;;;27.49
76476;BMP280;65308;50.078;14.854;2023-08-08T08:20:55;99070.19;;;27.87
76476;BMP280;65308;50.078;14.854;2023-08-08T08:23:26;99082.19;;;30.91
76476;BMP280;65308;50.078;14.854;2023-08-08T08:26:06;99078.53;;;33.46
76476;BMP280;65308;50.078;14.854;2023-08-08T08:28:33;99067.81;;;35.38
76476;BMP280;65308;50.078;14.854;2023-08-08T08:31:04;99073.78;;;37.00
76476;BMP280;65308;50.078;14.854;2023-08-08T08:33:30;99075.13;;;38.18
76476;BMP280;65308;50.078;14.854;2023-08-08T08:36:01;99065.22;;;37.14
76476;BMP280;65308;50.078;14.854;2023-08-08T08:38:46;99053.25;;;36.38
76476;BMP280;65308;50.078;14.854;2023-08-08T08:41:18;99047.63;;;35.22
76476;BMP280;65308;50.078;14.854;2023-08-08T08:43:48;99049.41;;;35.31
76476;BMP280;65308;50.078;14.854;2023-08-08T08:46:18;99058.66;;;35.36
76476;BMP280;65308;50.078;14.854;2023-08-08T08:48:47;99052.91;;;35.79
76476;BMP280;65308;50.078;14.854;2023-08-08T08:51:15;99056.66;;;35.07
76476;BMP280;65308;50.078;14.854;2023-08-08T08:53:42;99046.50;;;34.98
76476;BMP280;65308;50.078;14.854;2023-08-08T08:56:11;99041.94;;;34.31
76476;BMP280;65308;50.078;14.854;2023-08-08T08:58:39;99038.78;;;34.23
76476;BMP280;65308;50.078;14.854;2023-08-08T09:01:07;99044.47;;;33.98
76476;BMP280;65308;50.078;14.854;2023-08-08T09:03:44;99043.84;;;33.99
76476;BMP280;65308;50.078;14.854;2023-08-08T09:06:11;99045.56;;;34.20
76476;BMP280;65308;50.078;14.854;2023-08-08T09:08:43;99038.00;;;35.25
76476;BMP280;65308;50.078;14.854;2023-08-08T09:11:10;99032.31;;;35.86
76476;BMP280;65308;50.078;14.854;2023-08-08T09:13:37;99035.41;;;36.10
76476;BMP280;65308;50.078;14.854;2023-08-08T09:16:05;99039.06;;;35.49
76476;BMP280;65308;50.078;14.854;2023-08-08T09:18:32;99037.75;;;35.03
76476;BMP280;65308;50.078;14.854;2023-08-08T09:20:59;99042.50;;;33.87
76476;BMP280;65308;50.078;14.854;2023-08-08T09:23:26;99034.88;;;32.95
76476;BMP280;65308;50.078;14.854;2023-08-08T09:25:54;99036.50;;;32.26
76476;BMP280;65308;50.078;14.854;2023-08-08T09:28:21;99024.25;;;31.82
76476;BMP280;65308;50.078;14.854;2023-08-08T09:30:48;99026.75;;;31.10
76476;BMP280;65308;50.078;14.854;2023-08-08T09:33:28;99020.75;;;30.81
76476;BMP280;65308;50.078;14.854;2023-08-08T09:35:55;99029.22;;;30.95
76476;BMP280;65308;50.078;14.854;2023-08-08T09:38:24;99017.75;;;30.46
76476;BMP280;65308;50.078;14.854;2023-08-08T09:40:53;99023.22;;;30.34
76476;BMP280;65308;50.078;14.854;2023-08-08T09:43:20;99022.56;;;29.83
76476;BMP280;65308;50.078;14.854;2023-08-08T09:45:48;99022.78;;;29.47
76476;BMP280;65308;50.078;14.854;2023-08-08T09:48:18;99030.63;;;29.11
76476;BMP280;65308;50.078;14.854;2023-08-08T09:50:46;99025.88;;;28.46
76476;BMP280;65308;50.078;14.854;2023-08-08T09:53:14;99018.41;;;28.20
76476;BMP280;65308;50.078;14.854;2023-08-08T09:55:41;99021.59;;;27.89
76476;BMP280;65308;50.078;14.854;2023-08-08T09:58:09;99023.69;;;27.37
76476;BMP280;65308;50.078;14.854;2023-08-08T10:00:36;99022.22;;;27.01
76476;BMP280;65308;50.078;14.854;2023-08-08T10:03:04;99009.59;;;26.31
76476;BMP280;65308;50.078;14.854;2023-08-08T10:05:31;99011.91;;;26.17
76476;BMP280;65308;50.078;14.854;2023-08-08T10:07:59;99011.31;;;26.27
76476;BMP280;65308;50.078;14.854;2023-08-08T10:10:25;99002.16;;;26.49
76476;BMP280;65308;50.078;14.854;2023-08-08T10:12:52;99003.34;;;26.63
76476;BMP280;65308;50.078;14.854;2023-08-08T10:15:25;99005.00;;;26.84
76476;BMP280;65308;50.078;14.854;2023-08-08T10:17:54;99003.06;;;27.11
76476;BMP280;65308;50.078;14.854;2023-08-08T10:20:25;98999.44;;;27.09
76476;BMP280;65308;50.078;14.854;2023-08-08T10:22:54;98998.41;;;27.04
76476;BMP280;65308;50.078;14.854;2023-08-08T10:25:23;98984.41;;;26.92
76476;BMP280;65308;50.078;14.854;2023-08-08T10:28:02;98986.41;;;26.74
76476;BMP280;65308;50.078;14.854;2023-08-08T10:30:41;98983.16;;;26.68
76476;BMP280;65308;50.078;14.854;2023-08-08T10:33:15;98988.38;;;26.82
76476;BMP280;65308;50.078;14.854;2023-08-08T10:35:51;98987.31;;;26.94
76476;BMP280;65308;50.078;14.854;2023-08-08T10:38:23;98977.31;;;27.24
76476;BMP280;65308;50.078;14.854;2023-08-08T10:40:55;98989.59;;;27.40
76476;BMP280;65308;50.078;14.854;2023-08-08T10:43:25;98980.25;;;27.26
76476;BMP280;65308;50.078;14.854;2023-08-08T10:45:58;98986.84;;;27.23
76476;BMP280;65308;50.078;14.854;2023-08-08T10:48:25;98986.66;;;27.21
76476;BMP280;65308;50.078;14.854;2023-08-08T10:50:54;98970.38;;;27.05
76476;BMP280;65308;50.078;14.854;2023-08-08T10:53:23;98979.16;;;26.87
76476;BMP280;65308;50.078;14.854;2023-08-08T10:55:57;98968.19;;;26.62
76476;BMP280;65308;50.078;14.854;2023-08-08T10:58:34;98969.69;;;26.63
76476;BMP280;65308;50.078;14.854;2023-08-08T11:01:03;98961.81;;;26.59
76476;BMP280;65308;50.078;14.854;2023-08-08T11:03:34;98957.72;;;26.51
76476;BMP280;65308;50.078;14.854;2023-08-08T11:06:01;98962.34;;;26.40
76476;BMP280;65308;50.078;14.854;2023-08-08T11:08:29;98959.91;;;26.27
76476;BMP280;65308;50.078;14.854;2023-08-08T11:10:56;98952.75;;;26.24
76476;BMP280;65308;50.078;14.854;2023-08-08T11:13:22;98947.75;;;26.13
76476;BMP280;65308;50.078;14.854;2023-08-08T11:15:49;98944.66;;;26.09
76476;BMP280;65308;50.078;14.854;2023-08-08T11:18:18;98945.78;;;26.06
76476;BMP280;65308;50.078;14.854;2023-08-08T11:20:54;98942.28;;;26.05
76476;BMP280;65308;50.078;14.854;2023-08-08T11:23:20;98937.88;;;26.10
76476;BMP280;65308;50.078;14.854;2023-08-08T11:25:47;98940.91;;;25.97
76476;BMP280;65308;50.078;14.854;2023-08-08T11:28:15;98934.38;;;25.84
76476;BMP280;65308;50.078;14.854;2023-08-08T11:30:43;98925.88;;;25.65
76476;BMP280;65308;50.078;14.854;2023-08-08T11:33:13;98930.91;;;25.44
76476;BMP280;65308;50.078;14.854;2023-08-08T11:35:44;98929.81;;;25.54
76476;BMP280;65308;50.078;14.854;2023-08-08T11:38:14;98930.69;;;25.57
76476;BMP280;65308;50.078;14.854;2023-08-08T11:40:41;98919.22;;;25.43
76476;BMP280;65308;50.078;14.854;2023-08-08T11:43:08;98922.69;;;25.44
76476;BMP280;65308;50.078;14.854;2023-08-08T11:45:37;98921.28;;;25.27
76476;BMP280;65308;50.078;14.854;2023-08-08T11:48:05;98922.03;;;25.20
76476;BMP280;65308;50.078;14.854;2023-08-08T11:50:31;98916.63;;;25.05
76476;BMP280;65308;50.078;14.854;2023-08-08T11:52:59;98919.91;;;24.96
76476;BMP280;65308;50.078;14.854;2023-08-08T11:55:29;98919.97;;;24.58
76476;BMP280;65308;50.078;14.854;2023-08-08T11:57:59;98905.72;;;24.51
76476;BMP280;65308;50.078;14.854;2023-08-08T12:00:30;98890.97;;;24.39
76476;BMP280;65308;50.078;14.854;2023-08-08T12:02:57;98904.28;;;24.43
76476;BMP280;65308;50.078;14.854;2023-08-08T12:05:24;98885.50;;;24.39
76476;BMP280;65308;50.078;14.854;2023-08-08T12:07:51;98878.03;;;24.32
76476;BMP280;65308;50.078;14.854;2023-08-08T12:10:21;98892.59;;;24.35
76476;BMP280;65308;50.078;14.854;2023-08-08T12:12:53;98885.13;;;24.28
76476;BMP280;65308;50.078;14.854;2023-08-08T12:15:22;98875.28;;;24.32
76476;BMP280;65308;50.078;14.854;2023-08-08T12:17:49;98882.75;;;24.32
76476;BMP280;65308;50.078;14.854;2023-08-08T12:20:16;98876.03;;;24.48
76476;BMP280;65308;50.078;14.854;2023-08-08T12:22:42;98870.38;;;24.54
76476;BMP280;65308;50.078;14.854;2023-08-08T12:25:10;98866.16;;;24.68
76476;BMP280;65308;50.078;14.854;2023-08-08T12:27:38;98871.03;;;24.85
76476;BMP280;65308;50.078;14.854;2023-08-08T12:30:07;98860.06;;;24.92
76476;BMP280;65308;50.078;14.854;2023-08-08T12:32:38;98862.97;;;25.02
76476;BMP280;65308;50.078;14.854;2023-08-08T12:35:05;98867.88;;;25.11
76476;BMP280;65308;50.078;14.854;2023-08-08T12:37:33;98857.31;;;25.00
76476;BMP280;65308;50.078;14.854;2023-08-08T12:39:59;98861.91;;;24.97
76476;BMP280;65308;50.078;14.854;2023-08-08T12:42:27;98847.13;;;24.93
76476;BMP280;65308;50.078;14.854;2023-08-08T12:44:56;98858.28;;;24.79
76476;BMP280;65308;50.078;14.854;2023-08-08T12:47:23;98855.41;;;24.62
76476;BMP280;65308;50.078;14.854;2023-08-08T12:49:49;98852.66;;;24.62
76476;BMP280;65308;50.078;14.854;2023-08-08T12:52:16;98850.28;;;24.59
76476;BMP280;65308;50.078;14.854;2023-08-08T12:54:43;98853.59;;;24.57
76476;BMP280;65308;50.078;14.854;2023-08-08T12:57:10;98851.22;;;24.38
76476;BMP280;65308;50.078;14.854;2023-08-08T12:59:36;98843.91;;;24.18
76476;BMP280;65308;50.078;14.854;2023-08-08T13:02:24;98848.88;;;24.19
76476;BMP280;65308;50.078;14.854;2023-08-08T13:04:51;98857.25;;;24.37
76476;BMP280;65308;50.078;14.854;2023-08-08T13:07:18;98849.75;;;24.45
76476;BMP280;65308;50.078;14.854;2023-08-08T13:09:49;98853.41;;;24.55
76476;BMP280;65308;50.078;14.854;2023-08-08T13:12:19;98859.00;;;24.72
76476;BMP280;65308;50.078;14.854;2023-08-08T13:14:46;98854.25;;;24.88
76476;BMP280;65308;50.078;14.854;2023-08-08T13:17:16;98851.38;;;24.78
76476;BMP280;65308;50.078;14.854;2023-08-08T13:19:48;98843.34;;;24.81
76476;BMP280;65308;50.078;14.854;2023-08-08T13:22:25;98846.44;;;24.69
76476;BMP280;65308;50.078;14.854;2023-08-08T13:24:56;98838.59;;;24.73
76476;BMP280;65308;50.078;14.854;2023-08-08T13:27:23;98841.53;;;24.68
76476;BMP280;65308;50.078;14.854;2023-08-08T13:29:50;98842.09;;;24.66
76476;BMP280;65308;50.078;14.854;2023-08-08T13:32:16;98842.84;;;24.44
76476;BMP280;65308;50.078;14.854;2023-08-08T13:34:43;98840.84;;;24.37
76476;BMP280;65308;50.078;14.854;2023-08-08T13:37:11;98836.66;;;24.36
76476;BMP280;65308;50.078;14.854;2023-08-08T13:39:38;98830.97;;;24.41
76476;BMP280;65308;50.078;14.854;2023-08-08T13:42:05;98832.09;;;24.31
76476;BMP280;65308;50.078;14.854;2023-08-08T13:44:32;98826.78;;;24.17
76476;BMP280;65308;50.078;14.854;2023-08-08T13:46:59;98823.31;;;24.25
76476;BMP280;65308;50.078;14.854;2023-08-08T13:49:29;98832.47;;;24.19
76476;BMP280;65308;50.078;14.854;2023-08-08T13:51:56;98834.28;;;24.17
76476;BMP280;65308;50.078;14.854;2023-08-08T13:54:25;98827.72;;;24.12
76476;BMP280;65308;50.078;14.854;2023-08-08T13:56:54;98831.34;;;24.22
76476;BMP280;65308;50.078;14.854;2023-08-08T13:59:30;98813.84;;;24.10
76476;BMP280;65308;50.078;14.854;2023-08-08T14:01:57;98821.31;;;24.02
76476;BMP280;65308;50.078;14.854;2023-08-08T14:04:24;98820.38;;;24.07
76476;BMP280;65308;50.078;14.854;2023-08-08T14:06:51;98819.13;;;24.23
76476;BMP280;65308;50.078;14.854;2023-08-08T14:09:18;98824.59;;;24.31
76476;BMP280;65308;50.078;14.854;2023-08-08T14:11:46;98814.03;;;24.43
76476;BMP280;65308;50.078;14.854;2023-08-08T14:14:13;98822.38;;;24.45
76476;BMP280;65308;50.078;14.854;2023-08-08T14:16:40;98819.28;;;24.48
76476;BMP280;65308;50.078;14.854;2023-08-08T14:19:11;98818.75;;;24.50
76476;BMP280;65308;50.078;14.854;2023-08-08T14:21:42;98819.13;;;24.31
76476;BMP280;65308;50.078;14.854;2023-08-08T14:24:09;98812.00;;;24.28
76476;BMP280;65308;50.078;14.854;2023-08-08T14:26:36;98805.13;;;24.19
76476;BMP280;65308;50.078;14.854;2023-08-08T14:29:04;98806.19;;;24.16
76476;BMP280;65308;50.078;14.854;2023-08-08T14:31:31;98813.31;;;24.19
76476;BMP280;65308;50.078;14.854;2023-08-08T14:33:58;98814.41;;;24.32
76476;BMP280;65308;50.078;14.854;2023-08-08T14:36:25;98818.59;;;24.33
76476;BMP280;65308;50.078;14.854;2023-08-08T14:38:55;98816.06;;;24.27
76476;BMP280;65308;50.078;14.854;2023-08-08T14:41:22;98801.44;;;24.25
76476;BMP280;65308;50.078;14.854;2023-08-08T14:43:49;98811.84;;;24.26
76476;BMP280;65308;50.078;14.854;2023-08-08T14:46:17;98826.25;;;24.11
76476;BMP280;65308;50.078;14.854;2023-08-08T14:48:44;98795.78;;;24.07
76476;BMP280;65308;50.078;14.854;2023-08-08T14:51:13;98820.22;;;23.82
76476;BMP280;65308;50.078;14.854;2023-08-08T14:53:42;98826.75;;;23.79
76476;BMP280;65308;50.078;14.854;2023-08-08T14:56:08;98827.31;;;23.85
76476;BMP280;65308;50.078;14.854;2023-08-08T14:58:36;98826.59;;;23.85
76476;BMP280;65308;50.078;14.854;2023-08-08T15:01:18;98825.69;;;23.75
76476;BMP280;65308;50.078;14.854;2023-08-08T15:03:48;98837.84;;;23.66
76476;BMP280;65308;50.078;14.854;2023-08-08T15:06:16;98838.97;;;23.78
76476;BMP280;65308;50.078;14.854;2023-08-08T15:08:43;98832.56;;;23.76
76476;BMP280;65308;50.078;14.854;2023-08-08T15:11:09;98839.34;;;23.82
76476;BMP280;65308;50.078;14.854;2023-08-08T15:13:37;98835.84;;;23.74
76476;BMP280;65308;50.078;14.854;2023-08-08T15:16:04;98833.28;;;23.68
76476;BMP280;65308;50.078;14.854;2023-08-08T15:18:33;98833.66;;;23.65
76476;BMP280;65308;50.078;14.854;2023-08-08T15:21:00;98828.34;;;23.59
76476;BMP280;65308;50.078;14.854;2023-08-08T15:23:27;98837.31;;;23.67
76476;BMP280;65308;50.078;14.854;2023-08-08T15:25:54;98835.13;;;23.74
76476;BMP280;65308;50.078;14.854;2023-08-08T15:28:21;98846.59;;;23.64
76476;BMP280;65308;50.078;14.854;2023-08-08T15:30:52;98834.97;;;23.79
76476;BMP280;65308;50.078;14.854;2023-08-08T15:33:19;98838.75;;;23.61
76476;BMP280;65308;50.078;14.854;2023-08-08T15:38:18;98837.50;;;23.77
76476;BMP280;65308;50.078;14.854;2023-08-08T15:40:45;98831.28;;;23.69
76476;BMP280;65308;50.078;14.854;2023-08-08T15:43:18;98833.09;;;23.66
76476;BMP280;65308;50.078;14.854;2023-08-08T15:45:49;98839.13;;;23.65
76476;BMP280;65308;50.078;14.854;2023-08-08T15:48:16;98844.41;;;23.63
76476;BMP280;65308;50.078;14.854;2023-08-08T15:50:43;98846.03;;;23.58
76476;BMP280;65308;50.078;14.854;2023-08-08T15:53:10;98836.88;;;23.48
76476;BMP280;65308;50.078;14.854;2023-08-08T15:55:45;98840.44;;;23.20
76476;BMP280;65308;50.078;14.854;2023-08-08T15:58:12;98845.13;;;23.20
76476;BMP280;65308;50.078;14.854;2023-08-08T16:00:39;98838.72;;;23.09
76476;BMP280;65308;50.078;14.854;2023-08-08T16:03:08;98838.06;;;23.24
76476;BMP280;65308;50.078;14.854;2023-08-08T16:05:38;98840.25;;;23.18
76476;BMP280;65308;50.078;14.854;2023-08-08T16:08:07;98828.38;;;23.16
76476;BMP280;65308;50.078;14.854;2023-08-08T16:10:34;98842.84;;;22.95
76476;BMP280;65308;50.078;14.854;2023-08-08T16:15:36;98849.06;;;22.75
76476;BMP280;65308;50.078;14.854;2023-08-08T16:18:06;98852.78;;;22.56
76476;BMP280;65308;50.078;14.854;2023-08-08T16:20:33;98852.72;;;22.49
76476;BMP280;65308;50.078;14.854;2023-08-08T16:23:01;98849.91;;;22.41
76476;BMP280;65308;50.078;14.854;2023-08-08T16:25:34;98856.25;;;22.36
76476;BMP280;65308;50.078;14.854;2023-08-08T16:28:02;98865.16;;;22.37
76476;BMP280;65308;50.078;14.854;2023-08-08T16:30:45;98864.00;;;22.32
76476;BMP280;65308;50.078;14.854;2023-08-08T16:33:13;98865.16;;;22.37
76476;BMP280;65308;50.078;14.854;2023-08-08T16:35:41;98873.03;;;22.27
76476;BMP280;65308;50.078;14.854;2023-08-08T16:38:08;98868.00;;;22.31
76476;BMP280;65308;50.078;14.854;2023-08-08T16:40:44;98869.88;;;22.36
76476;BMP280;65308;50.078;14.854;2023-08-08T16:43:10;98871.75;;;22.41
76476;BMP280;65308;50.078;14.854;2023-08-08T16:45:48;98873.38;;;22.23
76476;BMP280;65308;50.078;14.854;2023-08-08T16:48:15;98881.38;;;22.21
76476;BMP280;65308;50.078;14.854;2023-08-08T16:50:42;98880.72;;;22.28
76476;BMP280;65308;50.078;14.854;2023-08-08T16:53:12;98870.13;;;22.25
76476;BMP280;65308;50.078;14.854;2023-08-08T16:55:39;98878.84;;;22.23
76476;BMP280;65308;50.078;14.854;2023-08-08T16:58:07;98885.34;;;22.20
76476;BMP280;65308;50.078;14.854;2023-08-08T17:00:36;98879.41;;;22.09
76476;BMP280;65308;50.078;14.854;2023-08-08T17:03:04;98876.09;;;22.02
76476;BMP280;65308;50.078;14.854;2023-08-08T17:05:34;98885.84;;;21.98
76476;BMP280;65308;50.078;14.854;2023-08-08T17:08:01;98884.72;;;21.93
76476;BMP280;65308;50.078;14.854;2023-08-08T17:10:30;98885.03;;;21.90
76476;BMP280;65308;50.078;14.854;2023-08-08T17:13:00;98882.38;;;21.77
76476;BMP280;65308;50.078;14.854;2023-08-08T17:15:33;98878.72;;;21.74
76476;BMP280;65308;50.078;14.854;2023-08-08T17:18:01;98883.94;;;21.72
76476;BMP280;65308;50.078;14.854;2023-08-08T17:20:39;98889.88;;;21.70